Weather at Skitnerød flyplass

Public forecast

Using degrees Celsius for public forecast. Weather courtesy of forecast.io.

Closest aviation weather report (METAR) to Skitnerød flyplass

Closest report is Sandefjord Airport, Torp, 17.8 nm (32.9 km) NE.

2024/05/21 07:20 (retrieved 13 minutes ago)

ENTO 210720Z 05005KT 350V080 CAVOK 15/04 Q1022 NOSIG

Closest aviation forecast (TAF) to Skitnerød flyplass

Closest forecast is Sandefjord Airport, Torp, 17.8 nm (32.9 km) NE.

2024/05/21 06:39 (retrieved 54 minutes ago)

TAF ENTO 210500Z 2106/2206 06007KT CAVOK